createdAt,value
2022-12-29T00:02:23.543Z,2.25
2022-12-29T00:04:56.193Z,1.33
2022-12-29T00:07:28.870Z,1.73
2022-12-29T00:10:01.561Z,1.10
2022-12-29T00:12:52.968Z,2.20
2022-12-29T00:15:37.905Z,0.90
2022-12-29T00:18:10.604Z,0.93
2022-12-29T00:21:01.943Z,1.95
2022-12-29T00:23:53.516Z,2.65
2022-12-29T00:26:44.570Z,1.10
2022-12-29T00:29:35.934Z,3.50
2022-12-29T00:32:29.888Z,0.70
2022-12-29T00:35:11.847Z,1.15
2022-12-29T00:38:07.395Z,1.33
2022-12-29T00:40:59.742Z,1.00
2022-12-29T00:43:51.104Z,1.50
2022-12-29T00:46:23.830Z,2.63
2022-12-29T00:49:16.921Z,3.78
2022-12-29T00:51:51.760Z,3.08
2022-12-29T00:54:24.375Z,1.42
2022-12-29T00:56:57.159Z,2.92
2022-12-29T00:59:29.769Z,1.85
2022-12-29T01:02:02.511Z,2.00
2022-12-29T01:04:35.941Z,1.73
2022-12-29T01:07:08.454Z,2.85
2022-12-29T01:10:03.960Z,2.60
2022-12-29T01:12:42.613Z,1.83
2022-12-29T01:15:16.232Z,2.75
2022-12-29T01:17:48.798Z,1.63
2022-12-29T01:20:21.925Z,2.75
2022-12-29T01:22:54.494Z,2.63
2022-12-29T01:25:27.017Z,1.80
2022-12-29T01:27:59.680Z,1.35
2022-12-29T01:30:36.135Z,1.50
2022-12-29T01:33:08.676Z,2.05
2022-12-29T01:35:41.369Z,1.30
2022-12-29T01:38:13.954Z,1.35
2022-12-29T01:40:47.852Z,2.70
2022-12-29T01:43:21.074Z,2.17
2022-12-29T01:45:55.424Z,3.33
2022-12-29T01:48:27.997Z,1.40
2022-12-29T01:51:00.729Z,1.35
2022-12-29T01:53:37.217Z,2.45
2022-12-29T01:56:18.257Z,1.67
2022-12-29T01:59:04.826Z,0.70
2022-12-29T02:01:37.982Z,2.03
2022-12-29T02:04:13.476Z,2.38
2022-12-29T02:06:54.418Z,1.75
2022-12-29T02:09:27.143Z,4.70
2022-12-29T02:12:00.884Z,2.53
2022-12-29T02:14:33.467Z,2.53
2022-12-29T02:17:25.948Z,4.45
2022-12-29T02:20:37.286Z,1.10
2022-12-29T02:23:46.896Z,2.58
2022-12-29T02:27:14.875Z,2.85
2022-12-29T02:30:28.120Z,1.08
2022-12-29T02:33:06.739Z,1.88
2022-12-29T02:36:22.510Z,2.85
2022-12-29T02:39:12.575Z,1.95
2022-12-29T02:41:55.245Z,3.10
2022-12-29T02:44:50.934Z,5.25
2022-12-29T02:47:54.033Z,2.10
2022-12-29T02:50:39.349Z,3.00
2022-12-29T02:53:39.405Z,1.25
2022-12-29T02:56:11.981Z,3.25
2022-12-29T02:58:44.623Z,3.22
2022-12-29T03:02:04.312Z,1.20
2022-12-29T03:05:16.034Z,2.25
2022-12-29T03:08:05.255Z,2.13
2022-12-29T03:10:51.479Z,2.58
2022-12-29T03:14:12.270Z,1.83
2022-12-29T03:16:58.441Z,2.45
2022-12-29T03:19:41.060Z,1.50
2022-12-29T03:22:28.541Z,3.63
2022-12-29T03:25:07.638Z,1.48
2022-12-29T03:27:52.587Z,2.03
2022-12-29T03:30:29.306Z,2.65
2022-12-29T03:33:09.484Z,0.80
2022-12-29T03:35:45.987Z,1.45
2022-12-29T03:38:31.290Z,1.55
2022-12-29T03:41:12.081Z,0.77
2022-12-29T03:43:44.634Z,1.27
2022-12-29T03:46:17.141Z,3.05
2022-12-29T03:48:50.988Z,0.77
2022-12-29T03:51:23.583Z,2.85
2022-12-29T03:53:56.677Z,1.10
2022-12-29T03:56:29.382Z,1.30
2022-12-29T03:59:01.852Z,3.70
2022-12-29T04:01:34.494Z,1.15
2022-12-29T04:04:07.142Z,2.10
2022-12-29T04:06:40.475Z,2.00
2022-12-29T04:09:13.218Z,3.42
2022-12-29T04:11:45.828Z,4.65
2022-12-29T04:14:18.418Z,1.85
2022-12-29T04:16:50.978Z,5.38
2022-12-29T04:19:23.556Z,2.53
2022-12-29T04:21:56.152Z,3.15
2022-12-29T04:24:28.706Z,2.45
2022-12-29T04:27:01.261Z,3.50
2022-12-29T04:29:33.887Z,3.92
2022-12-29T04:32:06.721Z,5.00
2022-12-29T04:34:40.085Z,1.52
2022-12-29T04:37:12.674Z,2.40
2022-12-29T04:39:45.296Z,2.95
2022-12-29T04:42:17.815Z,3.35
2022-12-29T04:44:50.917Z,3.00
2022-12-29T04:47:23.546Z,2.85
2022-12-29T04:49:56.115Z,2.60
2022-12-29T04:52:28.635Z,2.05
2022-12-29T04:55:01.492Z,3.90
2022-12-29T04:57:34.132Z,4.90
2022-12-29T05:00:09.813Z,3.22
2022-12-29T05:02:42.628Z,2.30
2022-12-29T05:05:15.429Z,5.78
2022-12-29T05:07:48.043Z,2.13
2022-12-29T05:10:20.795Z,4.78
2022-12-29T05:12:53.325Z,3.22
2022-12-29T05:15:25.931Z,2.53
2022-12-29T05:17:58.551Z,4.70
2022-12-29T05:20:31.175Z,2.60
2022-12-29T05:23:03.673Z,2.47
2022-12-29T05:25:36.361Z,3.75
2022-12-29T05:28:08.959Z,2.13
2022-12-29T05:30:41.560Z,6.05
2022-12-29T05:33:14.162Z,4.93
2022-12-29T05:35:47.265Z,3.53
2022-12-29T05:38:19.832Z,2.75
2022-12-29T05:40:52.355Z,3.78
2022-12-29T05:43:24.890Z,3.45
2022-12-29T05:45:58.500Z,2.60
2022-12-29T05:48:37.511Z,7.05
2022-12-29T05:51:12.551Z,3.03
2022-12-29T05:53:45.335Z,3.38
2022-12-29T05:56:18.205Z,1.48
2022-12-29T05:58:51.244Z,5.70
2022-12-29T06:01:23.933Z,3.60
2022-12-29T06:03:56.635Z,1.13
2022-12-29T06:06:31.863Z,1.90
2022-12-29T06:09:04.473Z,2.28
2022-12-29T06:11:37.074Z,2.83
2022-12-29T06:14:09.797Z,2.83
2022-12-29T06:16:42.940Z,3.08
2022-12-29T06:19:15.655Z,2.80
2022-12-29T06:21:48.416Z,3.10
2022-12-29T06:24:21.320Z,3.47
2022-12-29T06:26:53.856Z,3.58
2022-12-29T06:29:26.426Z,3.60
2022-12-29T06:31:59.375Z,7.63
2022-12-29T06:34:32.058Z,9.15
2022-12-29T06:37:04.999Z,4.82
2022-12-29T06:39:37.638Z,1.83
2022-12-29T06:42:10.811Z,5.72
2022-12-29T06:44:43.767Z,4.70
2022-12-29T06:47:16.582Z,7.00
2022-12-29T06:49:49.335Z,2.30
2022-12-29T06:52:21.947Z,4.35
2022-12-29T06:54:54.469Z,5.60
2022-12-29T06:57:27.533Z,4.75
2022-12-29T07:00:00.185Z,4.05
2022-12-29T07:02:32.926Z,3.78
2022-12-29T07:05:06.250Z,3.53
2022-12-29T07:07:38.857Z,5.80
2022-12-29T07:10:11.354Z,6.63
2022-12-29T07:12:43.940Z,7.75
2022-12-29T07:15:16.760Z,7.97
2022-12-29T07:17:50.692Z,5.18
2022-12-29T07:20:26.783Z,6.45
2022-12-29T07:22:59.834Z,7.25
2022-12-29T07:25:32.387Z,5.18
2022-12-29T07:28:05.157Z,4.95
2022-12-29T07:30:39.461Z,5.30
2022-12-29T07:33:12.030Z,8.38
2022-12-29T07:35:44.607Z,5.10
2022-12-29T07:38:17.659Z,6.18
2022-12-29T07:40:50.277Z,4.90
2022-12-29T07:43:22.838Z,3.33
2022-12-29T07:45:55.460Z,3.60
2022-12-29T07:48:28.182Z,5.53
2022-12-29T07:51:00.684Z,1.88
2022-12-29T07:53:33.515Z,3.72
2022-12-29T07:56:07.019Z,6.78
2022-12-29T07:58:39.650Z,5.00
2022-12-29T08:01:12.230Z,5.40
2022-12-29T08:03:44.944Z,6.10
2022-12-29T08:06:17.634Z,6.95
2022-12-29T08:08:50.153Z,9.32
2022-12-29T08:11:23.006Z,8.80
2022-12-29T08:13:55.648Z,6.18
2022-12-29T08:16:28.262Z,6.60
2022-12-29T08:19:01.057Z,8.98
2022-12-29T08:21:33.729Z,9.73
2022-12-29T08:24:07.470Z,5.00
2022-12-29T08:26:40.025Z,6.30
2022-12-29T08:29:12.606Z,6.28
2022-12-29T08:31:45.254Z,7.75
2022-12-29T08:34:17.887Z,7.63
2022-12-29T08:36:50.635Z,8.75
2022-12-29T08:39:23.400Z,5.47
2022-12-29T08:41:55.960Z,3.10
2022-12-29T08:44:28.494Z,6.38
2022-12-29T08:47:01.154Z,9.82
2022-12-29T08:49:34.312Z,7.63
2022-12-29T08:52:07.094Z,6.85
2022-12-29T08:54:39.632Z,5.03
2022-12-29T08:57:12.295Z,4.15
2022-12-29T08:59:45.011Z,8.80
2022-12-29T09:02:23.715Z,6.13
2022-12-29T09:04:58.390Z,6.00
2022-12-29T09:07:30.978Z,5.93
2022-12-29T09:10:04.820Z,4.00
2022-12-29T09:12:37.384Z,3.63
2022-12-29T09:15:10.470Z,6.15
2022-12-29T09:17:46.584Z,9.32
2022-12-29T09:20:20.611Z,8.35
2022-12-29T09:22:53.275Z,5.15
2022-12-29T09:25:26.052Z,9.05
2022-12-29T09:27:58.839Z,5.88
2022-12-29T09:30:31.339Z,11.00
2022-12-29T09:33:03.984Z,3.17
2022-12-29T09:35:37.312Z,2.50
2022-12-29T09:38:10.570Z,4.93
2022-12-29T09:40:50.337Z,6.10
2022-12-29T09:43:55.768Z,8.43
2022-12-29T09:46:38.089Z,3.72
2022-12-29T09:52:00.242Z,4.68
2022-12-29T09:55:03.186Z,7.75
2022-12-29T09:58:06.259Z,3.83
2022-12-29T10:00:55.142Z,5.60
2022-12-29T10:03:46.067Z,4.13
2022-12-29T10:06:33.059Z,4.18
2022-12-29T10:09:17.693Z,7.30
2022-12-29T10:12:34.086Z,4.47
2022-12-29T10:15:45.650Z,5.13
2022-12-29T10:18:46.718Z,8.05
2022-12-29T10:21:47.421Z,6.47
2022-12-29T10:24:22.912Z,4.40
2022-12-29T10:29:43.869Z,6.45
2022-12-29T10:32:54.840Z,3.08
2022-12-29T10:35:36.871Z,8.70
2022-12-29T10:38:26.428Z,4.97
2022-12-29T10:41:22.572Z,9.48
2022-12-29T10:43:58.469Z,5.35
2022-12-29T10:46:37.643Z,3.17
2022-12-29T10:49:21.771Z,4.35
2022-12-29T10:52:00.761Z,3.55
2022-12-29T10:54:49.979Z,7.78
2022-12-29T10:57:33.671Z,3.58
2022-12-29T11:00:23.415Z,6.68
2022-12-29T11:04:00.154Z,7.57
2022-12-29T11:06:33.268Z,7.72
2022-12-29T11:09:36.560Z,5.38
2022-12-29T11:12:32.056Z,6.60
2022-12-29T11:15:10.603Z,8.95
2022-12-29T11:18:00.570Z,4.65
2022-12-29T11:20:35.101Z,3.05
2022-12-29T11:23:35.424Z,4.53
2022-12-29T11:26:20.499Z,8.60
2022-12-29T11:29:15.103Z,2.30
2022-12-29T11:32:00.219Z,5.22
2022-12-29T11:34:36.639Z,7.05
2022-12-29T11:37:20.657Z,4.68
2022-12-29T11:40:20.310Z,8.98
2022-12-29T11:42:57.841Z,5.97
2022-12-29T11:45:36.178Z,6.18
2022-12-29T11:48:19.893Z,11.98
2022-12-29T11:51:00.615Z,7.53
2022-12-29T11:53:42.844Z,8.82
2022-12-29T11:56:20.513Z,7.07
2022-12-29T11:58:54.299Z,7.60
2022-12-29T12:01:39.793Z,9.10
2022-12-29T12:04:18.468Z,10.10
2022-12-29T12:07:03.517Z,6.13
2022-12-29T12:09:52.712Z,6.35
2022-12-29T12:12:36.327Z,7.38
2022-12-29T12:15:30.259Z,5.63
2022-12-29T12:18:12.790Z,8.05
2022-12-29T12:20:59.632Z,9.55
2022-12-29T12:24:01.452Z,11.35
2022-12-29T12:29:57.612Z,7.10
2022-12-29T12:32:47.642Z,8.25
2022-12-29T12:35:45.121Z,10.02
2022-12-29T12:38:54.722Z,7.85
2022-12-29T12:41:41.151Z,8.73
2022-12-29T12:44:29.551Z,4.97
2022-12-29T12:47:28.911Z,4.70
2022-12-29T12:50:16.784Z,6.78
2022-12-29T12:53:21.776Z,11.32
2022-12-29T12:56:30.734Z,5.75
2022-12-29T12:59:36.733Z,5.95
2022-12-29T13:03:01.883Z,9.70
2022-12-29T13:05:53.292Z,9.75
2022-12-29T13:08:44.021Z,6.90
2022-12-29T13:11:43.154Z,8.73
2022-12-29T13:14:25.829Z,7.05
2022-12-29T13:17:16.476Z,11.88
2022-12-29T13:20:35.106Z,8.68
2022-12-29T13:23:35.055Z,8.77
2022-12-29T13:26:26.581Z,6.15
2022-12-29T13:29:02.015Z,10.38
2022-12-29T13:31:54.568Z,7.80
2022-12-29T13:34:36.215Z,7.63
2022-12-29T13:37:19.797Z,5.70
2022-12-29T13:40:00.813Z,10.13
2022-12-29T13:42:35.545Z,12.27
2022-12-29T13:45:17.425Z,8.43
2022-12-29T13:47:58.828Z,6.60
2022-12-29T13:50:39.395Z,7.43
2022-12-29T13:53:39.738Z,5.63
2022-12-29T13:56:43.255Z,7.05
2022-12-29T13:59:41.597Z,5.13
2022-12-29T14:02:40.467Z,9.60
2022-12-29T14:05:19.228Z,8.57
2022-12-29T14:08:01.831Z,14.18
2022-12-29T14:13:19.561Z,4.00
2022-12-29T14:16:02.689Z,9.32
2022-12-29T14:18:44.821Z,7.03
2022-12-29T14:21:17.286Z,8.52
2022-12-29T14:23:52.065Z,5.78
2022-12-29T14:26:30.712Z,9.40
2022-12-29T14:29:25.264Z,9.02
2022-12-29T14:31:58.117Z,10.00
2022-12-29T14:34:39.678Z,9.20
2022-12-29T14:37:34.208Z,6.35
2022-12-29T14:40:27.283Z,11.20
2022-12-29T14:43:00.392Z,5.22
2022-12-29T14:45:38.339Z,7.93
2022-12-29T14:48:45.323Z,9.35
2022-12-29T14:51:32.437Z,13.75
2022-12-29T14:54:38.924Z,14.30
2022-12-29T14:57:30.751Z,13.85
2022-12-29T15:00:32.005Z,6.47
2022-12-29T15:03:18.282Z,11.93
2022-12-29T15:05:57.358Z,8.90
2022-12-29T15:08:38.665Z,6.25
2022-12-29T15:11:23.711Z,7.07
2022-12-29T15:13:56.480Z,3.63
2022-12-29T15:16:28.988Z,3.35
2022-12-29T15:19:01.577Z,6.32
2022-12-29T15:21:37.491Z,2.30
2022-12-29T15:24:12.091Z,6.38
2022-12-29T15:26:52.942Z,4.53
2022-12-29T15:29:42.525Z,2.95
2022-12-29T15:32:22.882Z,4.43
2022-12-29T15:35:02.298Z,5.57
2022-12-29T15:37:39.150Z,4.15
2022-12-29T15:40:33.626Z,5.82
2022-12-29T15:43:33.542Z,2.92
2022-12-29T15:46:06.464Z,4.28
2022-12-29T15:48:41.482Z,2.30
2022-12-29T15:51:34.337Z,3.65
2022-12-29T15:54:17.439Z,4.75
2022-12-29T15:56:50.945Z,2.88
2022-12-29T15:59:31.980Z,2.38
2022-12-29T16:02:12.601Z,6.03
2022-12-29T16:05:09.145Z,2.92
2022-12-29T16:07:42.014Z,3.22
2022-12-29T16:10:36.790Z,1.85
2022-12-29T16:13:15.232Z,3.47
2022-12-29T16:15:50.625Z,2.17
2022-12-29T16:18:29.422Z,4.13
2022-12-29T16:21:06.132Z,3.10
2022-12-29T16:23:38.742Z,2.75
2022-12-29T16:26:19.134Z,5.35
2022-12-29T16:28:58.270Z,6.88
2022-12-29T16:31:37.764Z,3.67
2022-12-29T16:34:30.863Z,3.42
2022-12-29T16:37:28.829Z,2.95
2022-12-29T16:40:20.561Z,4.25
2022-12-29T16:43:01.522Z,5.38
2022-12-29T16:45:49.208Z,4.07
2022-12-29T16:48:35.983Z,5.25
2022-12-29T16:51:37.339Z,2.90
2022-12-29T16:54:24.436Z,6.80
2022-12-29T16:56:57.490Z,6.32
2022-12-29T16:59:43.332Z,5.82
2022-12-29T17:02:21.808Z,2.67
2022-12-29T17:04:54.552Z,7.47
2022-12-29T17:07:29.131Z,12.90
2022-12-29T17:10:01.673Z,17.30
2022-12-29T17:12:37.518Z,4.55
2022-12-29T17:15:27.126Z,6.32
2022-12-29T17:18:00.792Z,6.40
2022-12-29T17:20:33.282Z,6.97
2022-12-29T17:23:19.933Z,8.43
2022-12-29T17:25:58.916Z,4.30
2022-12-29T17:28:33.165Z,10.50
2022-12-29T17:31:07.654Z,8.30
2022-12-29T17:33:42.703Z,4.82
2022-12-29T17:36:15.557Z,5.72
2022-12-29T17:38:48.044Z,6.50
2022-12-29T17:41:20.558Z,6.20
2022-12-29T17:43:53.100Z,2.78
2022-12-29T17:46:25.709Z,6.78
2022-12-29T17:48:58.713Z,9.95
2022-12-29T17:51:31.260Z,5.10
2022-12-29T17:54:03.869Z,10.55
2022-12-29T17:56:36.377Z,8.02
2022-12-29T17:59:14.117Z,8.65
2022-12-29T18:01:49.458Z,6.00
2022-12-29T18:04:22.508Z,7.30
2022-12-29T18:06:54.996Z,11.75
2022-12-29T18:09:27.518Z,5.10
2022-12-29T18:12:00.174Z,6.88
2022-12-29T18:14:32.720Z,8.05
2022-12-29T18:17:12.773Z,8.50
2022-12-29T18:19:45.390Z,9.73
2022-12-29T18:22:17.984Z,5.35
2022-12-29T18:24:51.311Z,7.78
2022-12-29T18:27:23.953Z,10.82
2022-12-29T18:29:56.593Z,8.10
2022-12-29T18:32:29.113Z,6.35
2022-12-29T18:35:01.606Z,15.80
2022-12-29T18:37:34.111Z,10.52
2022-12-29T18:40:09.855Z,6.90
2022-12-29T18:42:42.742Z,7.10
2022-12-29T18:45:23.468Z,8.27
2022-12-29T18:47:55.946Z,14.15
2022-12-29T18:50:28.500Z,5.28
2022-12-29T18:53:04.046Z,7.97
2022-12-29T18:55:36.946Z,7.88
2022-12-29T18:58:09.462Z,8.27
2022-12-29T19:00:42.978Z,9.63
2022-12-29T19:03:18.518Z,11.77
2022-12-29T19:05:51.361Z,9.70
2022-12-29T19:08:24.899Z,13.10
2022-12-29T19:10:59.757Z,9.57
2022-12-29T19:13:33.628Z,11.68
2022-12-29T19:16:08.985Z,16.02
2022-12-29T19:18:44.770Z,10.60
2022-12-29T19:21:20.036Z,15.30
2022-12-29T19:23:53.050Z,4.97
2022-12-29T19:26:35.981Z,7.55
2022-12-29T19:29:17.872Z,9.60
2022-12-29T19:31:50.611Z,7.20
2022-12-29T19:34:23.158Z,8.68
2022-12-29T19:36:56.882Z,6.78
2022-12-29T19:39:29.558Z,11.60
2022-12-29T19:42:05.499Z,18.85
2022-12-29T19:47:11.034Z,9.48
2022-12-29T19:49:43.691Z,10.45
2022-12-29T19:52:16.303Z,13.30
2022-12-29T19:54:48.889Z,7.30
2022-12-29T19:57:22.701Z,17.13
2022-12-29T19:59:55.423Z,7.78
2022-12-29T20:02:33.261Z,10.88
2022-12-29T20:05:06.800Z,7.57
2022-12-29T20:07:42.563Z,6.20
2022-12-29T20:10:15.247Z,7.40
2022-12-29T20:12:48.043Z,10.23
2022-12-29T20:15:20.544Z,4.93
2022-12-29T20:20:45.863Z,8.02
2022-12-29T20:23:18.981Z,11.18
2022-12-29T20:25:59.949Z,4.75
2022-12-29T20:28:32.841Z,10.13
2022-12-29T20:31:14.832Z,15.65
2022-12-29T20:33:47.952Z,7.93
2022-12-29T20:36:29.054Z,9.32
2022-12-29T20:39:08.041Z,8.32
2022-12-29T20:41:40.963Z,7.07
2022-12-29T20:44:13.942Z,6.70
2022-12-29T20:46:46.628Z,5.88
2022-12-29T20:49:22.355Z,12.50
2022-12-29T20:52:10.923Z,12.00
2022-12-29T20:54:44.635Z,5.85
2022-12-29T20:57:17.221Z,12.55
2022-12-29T20:59:49.949Z,10.18
2022-12-29T21:02:23.733Z,9.30
2022-12-29T21:05:22.651Z,5.43
2022-12-29T21:07:50.949Z,5.80
2022-12-29T21:10:23.542Z,8.05
2022-12-29T21:12:56.815Z,12.68
2022-12-29T21:15:29.960Z,11.55
2022-12-29T21:18:02.534Z,8.07
2022-12-29T21:20:35.130Z,7.28
2022-12-29T21:23:08.075Z,8.82
2022-12-29T21:25:44.279Z,5.53
2022-12-29T21:30:50.901Z,8.52
2022-12-29T21:33:23.573Z,5.07
2022-12-29T21:35:56.282Z,6.75
2022-12-29T21:38:31.888Z,9.93
2022-12-29T21:41:10.773Z,11.07
2022-12-29T21:44:04.805Z,13.10
2022-12-29T21:46:41.619Z,7.68
2022-12-29T21:49:14.405Z,6.10
2022-12-29T21:51:57.502Z,8.82
2022-12-29T21:54:50.030Z,9.80
2022-12-29T21:57:41.578Z,6.85
2022-12-29T22:00:33.692Z,14.07
2022-12-29T22:03:24.859Z,13.52
2022-12-29T22:06:16.461Z,10.52
2022-12-29T22:09:07.575Z,8.57
2022-12-29T22:11:58.903Z,7.50
2022-12-29T22:14:31.415Z,9.63
2022-12-29T22:17:03.969Z,13.23
2022-12-29T22:19:36.576Z,6.97
2022-12-29T22:22:09.132Z,7.97
2022-12-29T22:24:41.702Z,4.68
2022-12-29T22:27:14.284Z,3.70
2022-12-29T22:29:46.859Z,7.75
2022-12-29T22:32:19.695Z,5.95
2022-12-29T22:34:52.320Z,10.30
2022-12-29T22:37:25.064Z,6.75
2022-12-29T22:39:57.600Z,5.07
2022-12-29T22:42:30.236Z,6.88
2022-12-29T22:45:02.784Z,5.50
2022-12-29T22:47:35.519Z,4.03
2022-12-29T22:50:08.837Z,8.27
2022-12-29T22:52:41.437Z,9.15
2022-12-29T22:55:14.011Z,7.60
2022-12-29T22:57:46.861Z,5.95
2022-12-29T23:00:19.507Z,7.28
2022-12-29T23:02:52.228Z,2.78
2022-12-29T23:05:24.933Z,6.68
2022-12-29T23:07:57.783Z,5.57
2022-12-29T23:10:30.494Z,5.93
2022-12-29T23:13:04.350Z,6.90
2022-12-29T23:15:36.901Z,4.15
2022-12-29T23:18:09.485Z,10.90
2022-12-29T23:20:42.468Z,7.93
2022-12-29T23:23:36.689Z,6.90
2022-12-29T23:26:09.231Z,9.63
2022-12-29T23:28:42.544Z,4.93
2022-12-29T23:31:16.570Z,5.50
2022-12-29T23:33:49.850Z,5.88
2022-12-29T23:36:23.245Z,7.78
2022-12-29T23:38:57.289Z,11.95
2022-12-29T23:41:30.554Z,8.43
2022-12-29T23:44:03.628Z,8.82
2022-12-29T23:46:36.897Z,6.82
2022-12-29T23:49:10.103Z,11.88
2022-12-29T23:51:43.264Z,9.68
2022-12-29T23:54:15.873Z,11.52
2022-12-29T23:56:48.471Z,14.80
2022-12-29T23:59:21.035Z,6.13
